Tiempo atmosférico en la estación meteorológica de Sigüenza, Guadalajara (1044 m.)



Fecha
DESCASC
Temp. máxima en grados centígrados (hora)
DESCASC
Temp. mínima en grados centígrados (hora)
DESCASC
Temp. media en grados centígrados
DESCASC
Racha de viento máxima en m/sg (hora)
DESCASC
Velocidad máxima media en intervalos de 10 minutos(hora)
DESCASC
Precipitaciones diarias en mm
DESCASC
Precipitaciones de 00:00 a 06:00 en mm
DESCASC
Precipitaciones de 06:00 a 12:00 en mm
DESCASC
Precipitaciones de 12:00 a 18:00 en mm
DESCASC
Precipitaciones de 18:00 a 24:00 en mm
DESCASC
21-02-2021 12.6 (13:20) 5.6 (23:59) 9.1 9.44 (02:40) 5.28 (14:30) 3.2 0 0 0 3.2
20-02-2021 17.5 (14:40) 2.9 (00:10) 10.2 17.22 (14:10) 9.72 (14:30) 0 0 0 0 0
19-02-2021 15.8 (16:00) -2.4 (06:50) 6.7 13.33 (13:30) 7.5 (13:50) 0 0 0 0 0
18-02-2021 14.5 (14:10) -2.8 (-00:0) 5.9 13.61 (14:30) 6.94 (15:10) 0 0 0 0 0
17-02-2021 15.3 (16:10) -0.6 (-00:0) 7.4 10.56 (16:30) 6.11 (16:30) 0 0 0 0 0
16-02-2021 14.6 (15:10) 1.3 (00:00) 8 10.28 (15:20) 5.28 (15:00) 0 0 0 0 0
15-02-2021 13.4 (16:20) -1 (-00:0) 6.2 8.61 (12:10) 4.44 (12:10) 0 0 0 0 0
14-02-2021 13.9 (16:00) -2.1 (-00:0) 5.9 8.33 (15:50) 4.72 (16:50) 0 0 0 0 0
13-02-2021 11.8 (15:40) -0.1 (00:00) 5.9 7.78 (17:40) 3.61 (17:00) 0.2 0 0 0.2 0
12-02-2021 12.1 (16:20) 4.8 (00:00) 8.5 10 (15:10) 5.56 (06:30) 9.4 0.4 8.8 0 0.2
11-02-2021 11.8 (15:20) -0.9 (-00:0) 5.5 8.61 (15:30) 3.61 (15:40) 0.4 0 0 0 0.4
10-02-2021 11.5 (17:10) 0 (00:00) 5.8 14.17 (05:00) 5 (02:40) 12.6 12.6 0 0 0
09-02-2021 6.5 (13:30) 2.6 (00:00) 4.5 16.94 (11:20) 9.17 (13:00) 13.2 0.8 2.8 7.6 2
08-02-2021 8.5 (16:20) 3.2 (00:00) 5.9 11.67 (16:30) 6.11 (00:10) 7.2 4.8 2 0.4 0
07-02-2021 8.8 (15:10) -1.5 (-00:0) 3.7 10 (11:30) 4.72 (23:59) 0.4 0 0 0.2 0.2
06-02-2021 10.7 (15:00) 3.5 (00:00) 7.1 9.17 (00:10) 5.28 (00:10) 11.6 2.2 0.6 5.2 3.6
05-02-2021 16.3 (16:00) 2.3 (00:00) 9.3 11.67 (23:30) 6.11 (23:30) 3 0 0 0 3
04-02-2021 14.4 (13:40) 3.5 (00:00) 8.9 13.06 (17:00) 7.22 (16:20) -- 0.2 -- 0 0
03-02-2021 11.3 (15:30) 6.4 (00:00) 8.9 10.56 (00:40) 5.83 (16:10) 0 0 0 0 0
02-02-2021 9.7 (13:20) 2.8 (00:00) 6.2 8.89 (19:40) 4.17 (14:30) 0 0 0 0 0
01-02-2021 16.4 (13:50) 2.6 (00:00) 9.5 11.11 (11:50) 4.72 (06:50) 0 0 0 0 0
31-01-2021 10.9 (15:00) 4.4 (00:00) 7.6 10.83 (01:10) 5 (12:50) 0 0 0 0 0
30-01-2021 10.6 (14:40) 4.9 (00:00) 7.8 13.06 (14:10) 5.83 (15:00) 4.6 1.8 2.2 0 0.6
29-01-2021 11.1 (15:10) 7 (00:00) 9.1 8.61 (22:30) 4.44 (04:10) 0 0 0 0 0
28-01-2021 10.7 (16:50) 2.2 (00:00) 6.4 6.39 (14:40) 3.61 (14:40) 0.2 0 0.2 0 0
27-01-2021 15.7 (16:00) 3.6 (00:00) 9.6 9.17 (14:10) 4.17 (14:10) 0.4 0.4 0 0 0
26-01-2021 10.9 (16:20) -0.8 (-00:0) 5 6.67 (14:00) 3.89 (14:10) 1.2 0 0 0 1.2
25-01-2021 9.6 (16:20) 1 (00:00) 5.3 11.94 (08:20) 4.72 (10:50) -- -- -- -- 0

Gráficas

Temp. máximas Temp. mínimas Temp. medias Precipitaciones Rachas de viento máximas Velocidades máximas media en intervalos de 10 minutos

Datos horarios

Fecha y hora oficial Temperatura (ºC) Velocidad del viento (km/h) Dirección del viento Racha (km/h) Dirección de racha Precipitación (mm) Presión (hPa) Tendencia (hPa) Humedad (%)
2021-02-23 23:00:00 1 2 Nordeste 6 Nordeste 0 918.7 1 93
2021-02-23 22:00:00 2.1 4 Nordeste 6 Nordeste 0 918.3 1.2 91
2021-02-23 21:00:00 3.5 3 Norte 5 Nordeste 0 918.1 1.4 87
2021-02-23 20:00:00 5.8 0 Calma 3 Este 0 917.7 1.2 78
2021-02-23 19:00:00 9 3 Sur 15 Sudoeste 0 917.1 0.7 64
2021-02-23 18:00:00 11.7 9 Sudoeste 21 Sudoeste 0 916.7 -- 52
2021-02-23 17:00:00 12.8 10 Sur 26 Sur 0 916.5 -- 50
2021-02-23 16:00:00 12.6 13 Sudoeste 26 Sudoeste 0 916.4 -- 53
2021-02-23 15:00:00 12.4 10 Sur 28 Sudoeste 0 916.5 -- 54
2021-02-23 14:00:00 11.8 9 Sur 24 Sur 0 916.6 -- 58
2021-02-23 13:00:00 11 10 Sur 24 Sur 0 917 -- 61
2021-02-23 12:00:00 9.1 10 Sur 20 Sudoeste 0 917 -- 67
2021-02-23 11:00:00 5.9 3 Sudeste 11 Noroeste 0 917 -- 85
2021-02-23 10:00:00 2.4 5 Norte 10 Nordeste 0 916.5 -- 93
2021-02-23 09:00:00 1.3 5 Nordeste 11 Este 0 916 -- 94
2021-02-23 08:00:00 1.9 4 Este 10 Este 0 915 -- 94
2021-02-23 07:00:00 2.5 3 Este 11 Este 0 914.3 -- 94
2021-02-23 06:00:00 2.7 5 Nordeste 15 Este 0 913.8 -- 93
2021-02-23 05:00:00 2.4 4 Este 10 Este 0 913.1 -- 97
2021-02-23 04:00:00 2 2 Nordeste 6 Nordeste 0 912.8 -- 97
2021-02-23 03:00:00 2.2 3 Norte 6 Nordeste 0 912.4 -- 97
2021-02-23 02:00:00 1.6 2 Sur 4 Sudoeste 0 912 -- 96
2021-02-23 01:00:00 1.9 0 Calma 3 Nordeste 0 911.3 -- 96
2021-02-23 00:00:00 2 3 Nordeste 5 Nordeste 0 910.8 -- 95
2021-02-22 23:00:00 1.8 3 Sudoeste 10 Nordeste 0 910.1 -- 92
2021-02-22 22:00:00 3.4 0 Calma 4 Sudeste 0 909.7 -- 90
2021-02-22 21:00:00 4 0 Calma 8 Nordeste 0 909.1 -- 87
2021-02-22 20:00:00 4.4 0 Calma 12 Noroeste 0 908.6 -- 85
2021-02-22 19:00:00 4.9 4 Noroeste 20 Oeste 0 907.5 -- 82
2021-02-22 18:00:00 5.2 5 Oeste 24 Noroeste 0 906.5 -- 81
2021-02-22 17:00:00 5.5 9 Noroeste 25 Noroeste 0 905.4 -- 81
2021-02-22 16:00:00 5.6 9 Noroeste 27 Noroeste 0 904.5 -- 82
2021-02-22 15:00:00 5.4 12 Noroeste 28 Noroeste 0.2 904 -- 85
2021-02-22 14:00:00 4.9 12 Noroeste 25 Noroeste 0 903.5 -- 85
2021-02-22 13:00:00 4.1 6 Noroeste 22 Noroeste 0.6 903.5 -- 91
2021-02-22 12:00:00 3.3 11 Noroeste 22 Noroeste 0.8 903.3 -- 90
2021-02-22 11:00:00 2.8 4 Oeste 22 Noroeste 0.6 902.6 -- 90
2021-02-22 10:00:00 2.6 4 Oeste 17 Noroeste 0.2 901.6 -- 91
2021-02-22 09:00:00 2.2 2 Noroeste 9 Norte 0 900.5 -- 91
2021-02-22 08:00:00 2.3 2 Sur 19 Sudoeste 0 899.1 -- 87
2021-02-22 07:00:00 2.3 6 Sudoeste 14 Sudoeste 0.2 898.2 2.4 95
2021-02-22 06:00:00 2.2 6 Sudoeste 12 Sudoeste 0 897.2 -- 95
2021-02-22 05:00:00 2.5 5 Sudoeste 12 Sudoeste 0.4 896.4 -- 94
2021-02-22 04:00:00 2.7 5 Sudoeste 11 Sudoeste 0.4 895.8 -- 92
2021-02-22 03:00:00 2.6 5 Sudoeste 18 Noroeste 1 895.6 -- 92
2021-02-22 02:00:00 2.9 7 Oeste 23 Noroeste 1.8 895.2 -- 90
2021-02-22 01:00:00 5.2 6 Sudoeste 15 Oeste 2.2 894.5 -- 93
2021-02-22 00:00:00 5.6 8 Sudoeste 24 Sudoeste 2.8 893.9 -- 92
2021-02-21 23:00:00 6.9 2 Este 8 Nordeste 0 893.1 -- 92
2021-02-21 22:00:00 6.9 3 Nordeste 11 Norte 0.2 893 0.7 92
2021-02-21 21:00:00 7.2 3 Nordeste 5 Norte 0.2 892.9 -- 91
2021-02-21 20:00:00 7.7 2 Noroeste 8 Sudoeste 0 892.8 -- 86
2021-02-21 19:00:00 8.7 3 Sur 11 Sur 0 892.3 -- 73
2021-02-21 18:00:00 9.4 4 Sudoeste 9 Sur 0 891.9 -- 69
2021-02-21 17:00:00 10 6 Sur 15 Sur 0 892 -- 65
2021-02-21 16:00:00 10.3 3 Norte 27 Sur 0 891.9 -- 63
2021-02-21 15:00:00 10.6 16 Sudoeste 33 Sur 0 892.2 -- 60
2021-02-21 14:00:00 11.5 17 Sur 33 Sudoeste 0 892.9 -- 57
2021-02-21 13:00:00 12.2 17 Sur 30 Sudoeste 0 893.4 -- 54
2021-02-21 12:00:00 10.8 15 Sur 31 Sudeste 0 893.8 -- 54
2021-02-21 11:00:00 10.4 10 Sur 23 Sudoeste 0 894.1 -- 56
2021-02-21 10:00:00 8.5 3 Norte 7 Norte 0 894.5 -- 55
2021-02-21 09:00:00 7.9 3 Sudoeste 11 Sudoeste 0 894.8 -- 60
2021-02-21 08:00:00 9.3 4 Sudeste 19 Sudeste 0 894 -- 48
2021-02-21 07:00:00 8.7 4 Sudeste 22 Sur 0 894.4 -- 50
2021-02-21 06:00:00 9 8 Sudeste 27 Sur 0 894.9 -- 48
2021-02-21 05:00:00 8.5 7 Sudeste 21 Sudeste 0 895.2 -- 50
2021-02-21 04:00:00 8.2 5 Sur 23 Sur 0 896.1 -- 53
2021-02-21 03:00:00 8.7 7 Sudoeste 34 Sudoeste 0 896.9 -- 52
2021-02-21 02:00:00 9.3 11 Sur 28 Sur 0 897 -- 49
2021-02-21 01:00:00 7.3 5 Norte 20 Sur 0 897.5 -- 61
2021-02-21 00:00:00 9.6 7 Sur 21 Sudoeste 0 898.2 -- 52
2021-02-20 23:00:00 8.8 3 Oeste 22 Sudeste 0 898.3 -- 57
2021-02-20 22:00:00 9.1 7 Sur 21 Sur 0 898.7 -- 54
2021-02-20 21:00:00 6 5 Nordeste 9 Norte 0 898.8 -- 60
2021-02-20 20:00:00 8.2 3 Nordeste 6 Nordeste 0 898.9 -- 53
2021-02-20 19:00:00 12.6 4 Sur 28 Sur 0 898.5 -- 33
2021-02-20 18:00:00 15.3 18 Sur 37 Sur 0 898.5 -- 29
2021-02-20 17:00:00 16 16 Sur 43 Sudoeste 0 898.5 -- 26
2021-02-20 16:00:00 15.4 23 Sudoeste 53 Sudoeste 0 899 -- 22
2021-02-20 15:00:00 16.6 30 Sudoeste 62 Sur 0 898.7 -- 24
2021-02-20 14:00:00 16.4 30 Sur 54 Sur 0 899.3 -- 28
2021-02-20 13:00:00 16.1 28 Sur 46 Sudoeste 0 900.4 -- 33
2021-02-20 12:00:00 12.9 27 Sur 46 Sur 0 901 -- 40
2021-02-20 11:00:00 12.2 24 Sur 44 Sur 0 901.3 -- 42
2021-02-20 10:00:00 9.7 13 Sur 31 Sudoeste 0 901.6 -- 54
2021-02-20 09:00:00 6.7 10 Sudoeste 28 Sudoeste 0 901.2 0 67
2021-02-20 08:00:00 5.3 6 Sudoeste 26 Sudoeste 0 901 -- 72
2021-02-20 07:00:00 5.3 6 Sudoeste 15 Sur 0 901.3 -- 70
2021-02-20 06:00:00 6.4 9 Sudoeste 32 Sudoeste 0 901.2 -- 60
2021-02-20 05:00:00 6.3 12 Sudoeste 37 Sur 0 901.1 -- 58
2021-02-20 04:00:00 7.9 17 Sur 45 Sudeste 0 901.3 -1.2 50
2021-02-20 03:00:00 7 6 Sur 30 Sur 0 901.9 -- 55
2021-02-20 02:00:00 5 8 Sur 16 Sudoeste 0 902.3 -- 63
2021-02-20 01:00:00 6.7 5 Sudoeste 18 Sudoeste 0 902.5 -- 57
2021-02-20 00:00:00 3 3 Oeste 10 Norte 0 902.9 -- 77
2021-02-19 23:00:00 3.3 2 Norte 10 Norte 0 903.3 -0.2 78
2021-02-19 22:00:00 3.8 4 Nordeste 8 Norte 0 903.1 -- 76
2021-02-19 21:00:00 3.9 0 Calma 11 Norte 0 903.4 -- 75
2021-02-19 20:00:00 5.7 0 Calma 6 Norte 0 903.5 -- 66
2021-02-19 19:00:00 10.4 2 Sur 20 Sudoeste 0 903.2 -- 49
2021-02-19 18:00:00 14 11 Sudoeste 44 Sur 0 903.1 -- 33
2021-02-19 17:00:00 15.3 19 Sudoeste 40 Sudoeste 0 903 -0.9 28
2021-02-19 16:00:00 15.8 13 Sudoeste 41 Sudoeste 0 903 -- 28
2021-02-19 15:00:00 15.3 18 Sudoeste 45 Sudoeste 0 903.4 -- 32
2021-02-19 14:00:00 14.8 26 Sur 48 Sur 0 903.9 -- 31
2021-02-19 13:00:00 13.4 22 Sur 36 Sudoeste 0 904.8 -- 45
2021-02-19 12:00:00 11.7 16 Sudoeste 33 Sudoeste 0 905.5 -- 54
2021-02-19 11:00:00 9.9 15 Sudoeste 32 Sur 0 905.7 -- 58
2021-02-19 10:00:00 3.4 0 Calma 4 Nordeste 0 905.8 -- 91
2021-02-19 09:00:00 -0.4 0 Calma 9 Nordeste 0 905.6 -- 96
2021-02-19 08:00:00 -1.8 4 Norte 6 Norte 0 905.2 -- 96
2021-02-19 07:00:00 -2 3 Norte 6 Norte 0 905.1 -- 95
2021-02-19 06:00:00 -2 0 Calma 5 Nordeste 0 905 -- 94
2021-02-19 05:00:00 -1.5 2 Nordeste 4 Norte 0 904.8 -- 93
2021-02-19 04:00:00 -0.9 0 Calma 5 Nordeste 0 904.9 -- 91
2021-02-19 03:00:00 -0.7 0 Calma 4 Nordeste 0 905.3 -- 91
2021-02-19 02:00:00 -0.7 2 Norte 4 Norte 0 905.5 -- 91
2021-02-19 01:00:00 -0.1 2 Norte 4 Norte 0 905.6 -- 88
2021-02-19 00:00:00 0.5 0 Calma 5 Nordeste 0 905.9 -- 86
2021-02-18 23:00:00 1.6 2 Nordeste 6 Norte 0 905.9 -- 81
2021-02-18 22:00:00 3.3 3 Norte 7 Norte 0 905.6 -- 74
2021-02-18 21:00:00 5.3 2 Norte 6 Sudoeste 0 905.2 -- 66
2021-02-18 20:00:00 7.8 4 Sudoeste 9 Sudoeste 0 904.9 -- 57
2021-02-18 19:00:00 10.2 5 Sudoeste 24 Sudoeste 0 904.2 -- 47
2021-02-18 18:00:00 12.4 8 Sudoeste 30 Sur 0 903.8 -- 43
2021-02-18 17:00:00 13.4 16 Sudoeste 37 Sur 0 903.7 -- 43
2021-02-18 16:00:00 14.1 13 Sudoeste 48 Sudoeste 0 903.7 -- 36
2021-02-18 15:00:00 13.7 21 Sudoeste 49 Sudoeste 0 903.3 -- 37
2021-02-18 14:00:00 14.2 15 Sudoeste 40 Sudoeste 0 904 -- 39
2021-02-18 13:00:00 13.5 18 Sudoeste 35 Sudoeste 0 904.3 -- 47
2021-02-18 12:00:00 12.3 13 Sudoeste 29 Sur 0 904.6 -- 54
2021-02-18 11:00:00 10.6 15 Sur 26 Sudoeste 0 904.6 -- 64
2021-02-18 10:00:00 5.2 3 Sudoeste 6 Sur 0 904.5 -- 85
2021-02-18 09:00:00 -0.6 0 Calma 6 Norte 0 904.3 -- 95
2021-02-18 08:00:00 -2.7 2 Nordeste 5 Nordeste 0 903.9 -- 96
2021-02-18 07:00:00 -2.6 0 Calma 5 Norte 0 903.9 -- 96
2021-02-18 06:00:00 -2.7 2 Nordeste 5 Norte 0 903.8 -- 96
2021-02-18 05:00:00 -2.6 2 Norte 5 Nordeste 0 904 -- 95
2021-02-18 04:00:00 -2 2 Nordeste 5 Nordeste 0 904.3 -- 95
2021-02-18 03:00:00 -1.6 2 Nordeste 4 Norte 0 904.8 -- 95
2021-02-18 02:00:00 -0.8 0 Calma 6 Nordeste 0 905.1 -- 94
2021-02-18 01:00:00 0 2 Nordeste 5 Nordeste 0 905.2 -- 92
2021-02-18 00:00:00 1.2 3 Norte 6 Norte 0 905.6 -- 90
2021-02-17 23:00:00 2.4 4 Norte 6 Norte 0 905.9 -- 88
2021-02-17 22:00:00 3.1 4 Norte 7 Norte 0 905.9 -- 85
2021-02-17 21:00:00 4.6 5 Nordeste 7 Norte 0 906 -- 79
2021-02-17 20:00:00 6.4 2 Nordeste 6 Nordeste 0 905.9 -- 72
2021-02-17 19:00:00 9.5 2 Este 18 Sudoeste 0 905.8 -- 59
2021-02-17 18:00:00 12.8 5 Sudoeste 33 Sur 0 905.8 -- 45
2021-02-17 17:00:00 14.2 17 Sudoeste 38 Sudoeste 0 905.8 -- 38
2021-02-17 16:00:00 15.2 13 Sudoeste 32 Sudoeste 0 906.2 -- 46
2021-02-17 15:00:00 13.9 10 Sudoeste 33 Sudoeste 0 906.8 -- 56
2021-02-17 14:00:00 13.4 12 Sudoeste 25 Sur 0 907.6 -- 62
2021-02-17 13:00:00 12.7 10 Sudoeste 25 Oeste 0 908.5 -- 63
2021-02-17 12:00:00 10.8 10 Sudoeste 23 Sudoeste 0 909.1 -- 72
2021-02-17 11:00:00 8 6 Sudoeste 13 Sudoeste 0 909.4 -- 82
2021-02-17 10:00:00 4.1 0 Calma 6 Nordeste 0 909.4 -- 95
2021-02-17 09:00:00 0.6 4 Nordeste 6 Norte 0 909.4 -- 97
2021-02-17 08:00:00 -0.5 3 Norte 6 Norte 0 909.2 -- 97
2021-02-17 07:00:00 -0.1 4 Nordeste 5 Nordeste 0 909.3 -- 97
2021-02-17 06:00:00 0.3 4 Nordeste 8 Norte 0 909.4 -- 97
2021-02-17 05:00:00 -0.1 3 Nordeste 6 Norte 0 909.6 -- 97
2021-02-17 04:00:00 0 0 Calma 6 Norte 0 910 -- 96
2021-02-17 03:00:00 0.3 3 Nordeste 8 Nordeste 0 910.1 -- 96
2021-02-17 02:00:00 0.7 3 Nordeste 6 Nordeste 0 910.4 -- 95
2021-02-17 01:00:00 1.3 3 Nordeste 7 Nordeste 0 910.5 -- 94
2021-02-17 00:00:00 2.3 3 Nordeste 7 Nordeste 0 910.8 -- 92
2021-02-16 23:00:00 3.4 2 Este 7 Norte 0 910.8 -- 89
2021-02-16 22:00:00 4.8 0 Calma 8 Sudoeste 0 910.7 -- 86
2021-02-16 21:00:00 6.5 5 Sudoeste 20 Sur 0 910.5 -- 80
2021-02-16 20:00:00 9 13 Sudoeste 27 Sur 0 910.5 -- 71
2021-02-16 19:00:00 9.6 3 Sur 20 Oeste 0 910.3 -- 69
2021-02-16 18:00:00 11.2 9 Sudoeste 26 Sudoeste 0 909.8 -- 60
2021-02-16 17:00:00 12.9 12 Sudoeste 31 Oeste 0 909.6 -- 53
2021-02-16 16:00:00 13.1 10 Sudoeste 37 Sudoeste 0 910 -- 51
2021-02-16 15:00:00 14.3 19 Sudoeste 35 Sudoeste 0 910.3 -- 53
2021-02-16 14:00:00 13.4 9 Sudoeste 33 Sudoeste 0 911 -- 60
2021-02-16 13:00:00 11.4 18 Sur 29 Sudoeste 0 911.6 -- 66
2021-02-16 12:00:00 10.9 13 Sudoeste 28 Sur 0 912.1 -- 68
2021-02-16 11:00:00 8.5 9 Sudoeste 19 Sudoeste 0 912.2 -- 77
2021-02-16 10:00:00 5.9 5 Sudoeste 14 Sur 0 912.5 -- 89
2021-02-16 09:00:00 3.4 5 Sudoeste 14 Sudoeste 0 912.2 -- 96
2021-02-16 08:00:00 2 3 Sudoeste 13 Oeste 0 911.9 -- 97
2021-02-16 07:00:00 1.7 5 Sudoeste 11 Sur 0 912 -- 96
2021-02-16 06:00:00 2.2 3 Sur 14 Sudoeste 0 912.3 -- 94
2021-02-16 05:00:00 2.6 5 Oeste 14 Oeste 0 912.6 -- 96
2021-02-16 04:00:00 2.6 4 Sudoeste 10 Sudoeste 0 913 -- 95
2021-02-16 03:00:00 2.9 4 Sur 9 Sur 0 913.6 -- 94
2021-02-16 02:00:00 2.8 3 Sur 9 Sudoeste 0 914.1 -- 94
2021-02-16 01:00:00 4.1 5 Sudoeste 17 Sudoeste 0 914.5 -- 89
2021-02-16 00:00:00 4.8 10 Sur 19 Sudoeste 0 914.8 -- 90
2021-02-15 23:00:00 4.8 8 Sur 14 Sur 0 915 -- 91
2021-02-15 22:00:00 5.3 6 Sudoeste 12 Sudoeste 0 914.8 -- 92
2021-02-15 21:00:00 5.1 8 Sudoeste 11 Sur 0 914.7 -- 91
2021-02-15 20:00:00 6.4 5 Sudoeste 9 Sudoeste 0 914.6 -- 85
2021-02-15 19:00:00 8.6 5 Sur 18 Oeste 0 914.5 -- 77
2021-02-15 18:00:00 11.2 7 Sudoeste 21 Sudoeste 0 914.2 -- 69
2021-02-15 17:00:00 12.9 10 Sudoeste 28 Sudoeste 0 914.1 -- 62
2021-02-15 16:00:00 13.1 10 Sudoeste 24 Sudoeste 0 914.5 -- 60
2021-02-15 15:00:00 12.3 8 Sudoeste 28 Sudoeste 0 914.9 -- 64
2021-02-15 14:00:00 10.5 12 Sudoeste 28 Sudoeste 0 915.7 -- 70
2021-02-15 13:00:00 8.6 11 Sudoeste 31 Sur 0 916.6 -- 77
2021-02-15 12:00:00 7.1 13 Sur 25 Sudoeste 0 917.4 -- 82
2021-02-15 11:00:00 5.6 10 Sudoeste 26 Sudoeste 0 917.6 -- 89
2021-02-15 10:00:00 4.9 10 Sudoeste 20 Sudoeste 0 917.4 -- 96
2021-02-15 09:00:00 3 4 Sur 8 Sur 0 917 -- 98
2021-02-15 08:00:00 0.7 0 Calma 6 Sudoeste 0 916.5 -- 98
2021-02-15 07:00:00 -0.9 3 Sudoeste 5 Sudoeste 0 916 -- 96
2021-02-15 06:00:00 -0.4 0 Calma 4 Norte 0 916.2 -- 95
2021-02-15 05:00:00 0.6 2 Sudoeste 6 Sudoeste 0 915.8 -- 93
2021-02-15 04:00:00 2.1 0 Calma 8 Sur 0 915.9 -- 91
2021-02-15 03:00:00 4.1 4 Sur 12 Sudoeste 0 916.2 -- 92
2021-02-15 02:00:00 4.6 6 Sur 17 Sur 0 916.1 -- 89
2021-02-15 01:00:00 4.2 8 Sur 13 Sur 0 916.1 -- 89
2021-02-15 00:00:00 4.1 4 Sudoeste 10 Sudoeste 0 916.1 -- 89
2021-02-14 23:00:00 3.7 5 Este 10 Sur 0 915.7 -- 91
2021-02-14 22:00:00 4.5 3 Sudoeste 9 Sudoeste 0 915.4 -- 88
2021-02-14 21:00:00 5.4 6 Sudoeste 9 Sudoeste 0 915.2 -- 86
2021-02-14 20:00:00 7.4 0 Calma 7 Sur 0 915 -- 78
2021-02-14 19:00:00 9.8 4 Sur 14 Sur 0 914.4 0.8 70
2021-02-14 18:00:00 12.1 10 Sur 22 Sudoeste 0 914 0.4 53
2021-02-14 17:00:00 12.6 16 Sur 27 Sur 0 913.8 -- 51
2021-02-14 16:00:00 13.8 12 Sur 30 Sudoeste 0 913.6 -- 54
2021-02-14 15:00:00 13.7 12 Sur 25 Sudoeste 0 913.6 -- 53
2021-02-14 14:00:00 13.3 11 Sudoeste 27 Sur 0 913.9 -- 55
2021-02-14 13:00:00 12.8 9 Sudoeste 22 Sudoeste 0 914.4 -- 59
2021-02-14 12:00:00 11.3 8 Sudoeste 17 Sudoeste 0 914.4 -- 64
2021-02-14 11:00:00 7.1 2 Sudeste 5 Nordeste 0 914.4 -- 86
2021-02-14 10:00:00 2.2 4 Nordeste 6 Nordeste 0 914.2 -- 97
2021-02-14 09:00:00 -1 5 Nordeste 8 Nordeste 0 913.9 -- 98
2021-02-14 08:00:00 -1.9 5 Nordeste 8 Norte 0 913.4 -- 98
2021-02-14 07:00:00 -1.9 3 Nordeste 6 Nordeste 0 913 -- 97
2021-02-14 06:00:00 -1.4 2 Nordeste 6 Norte 0 912.6 -- 98
2021-02-14 05:00:00 -1.2 3 Nordeste 6 Nordeste 0 912.5 -- 98
2021-02-14 04:00:00 -0.7 3 Norte 6 Sudoeste 0 912.6 -- 97
2021-02-14 03:00:00 -0.2 3 Nordeste 8 Nordeste 0 912.6 -- 97
2021-02-14 02:00:00 0.1 2 Nordeste 5 Nordeste 0 912.6 -- 96
2021-02-14 01:00:00 1.1 5 Norte 7 Norte 0 912.5 -- 97
2021-02-14 00:00:00 1.3 0 Calma 5 Sur 0 912.6 -- 94
2021-02-13 23:00:00 2.4 2 Sudeste 6 Norte 0 912.6 -- 92
2021-02-13 22:00:00 4.2 3 Este 13 Noroeste 0 912.4 -- 88
2021-02-13 21:00:00 6 4 Oeste 14 Oeste 0 912.4 -- 81
2021-02-13 20:00:00 7.2 4 Norte 13 Noroeste 0 912.2 -- 77
2021-02-13 19:00:00 8.5 7 Noroeste 12 Noroeste 0 911.5 -- 70
2021-02-13 18:00:00 10.9 6 Oeste 28 Noroeste 0 910.7 -- 59
2021-02-13 17:00:00 11.2 13 Noroeste 24 Norte 0.2 910.3 -- 55
2021-02-13 16:00:00 11.6 5 Oeste 22 Sudoeste 0 910.2 -- 52
2021-02-13 15:00:00 11.2 5 Sudoeste 19 Sudoeste 0 910.3 -- 55
2021-02-13 14:00:00 9 7 Sudoeste 16 Sur 0 910.9 -- 76
2021-02-13 13:00:00 7.2 6 Sudoeste 15 Sur 0 911.2 -- 80
2021-02-13 08:00:00 0 3 Sudoeste 7 Sur 0 909.9 0.9 97
2021-02-13 07:00:00 1 0 Calma 4 Noroeste 0 909.6 0.5 97
2021-02-13 06:00:00 1.5 2 Oeste 6 Noroeste 0 909.4 0 97
2021-02-13 05:00:00 2.3 2 Este 4 Sudoeste 0 909 -0.4 97
2021-02-13 04:00:00 2.4 2 Oeste 7 Noroeste 0 909.1 0 96
2021-02-13 03:00:00 2.7 2 Norte 5 Norte 0 909.4 0.4 95
2021-02-13 02:00:00 3.3 2 Noroeste 6 Sudoeste 0 909.4 0.5 94
2021-02-13 01:00:00 4.6 3 Sudoeste 11 Noroeste 0 909.1 0.5 90
2021-02-13 00:00:00 5.5 7 Noroeste 13 Noroeste 0 909 0.5 91
2021-02-12 23:00:00 5.8 3 Oeste 7 Norte 0 908.9 0.8 91
2021-02-12 22:00:00 7.2 3 Norte 8 Norte 0.2 908.6 1.5 89
2021-02-12 21:00:00 7.4 5 Sudoeste 11 Norte 0 908.5 2.1 88
2021-02-12 20:00:00 8 4 Nordeste 21 Norte 0 908.1 2.2 84
2021-02-12 19:00:00 8.9 4 Oeste 25 Oeste 0 907.1 1.5 71
2021-02-12 18:00:00 10 6 Oeste 27 Noroeste 0 906.4 1.1 68
2021-02-12 17:00:00 10.2 9 Oeste 32 Noroeste 0 905.9 0.4 67
2021-02-12 16:00:00 11.5 11 Oeste 36 Oeste 0 905.6 0.5 66
2021-02-12 15:00:00 10.8 10 Oeste 33 Sudoeste 0 905.3 0.5 70
2021-02-12 14:00:00 8.7 8 Oeste 25 Noroeste 0 905.5 1.2 73
2021-02-12 13:00:00 9.7 6 Oeste 25 Oeste 0 905.1 1.2 71
2021-02-12 12:00:00 8.5 9 Sudoeste 21 Sudoeste 0 904.8 1.9 80
2021-02-12 11:00:00 8.4 7 Sudoeste 16 Sudoeste 0.2 904.3 1.4 87
2021-02-12 10:00:00 7.4 6 Sudoeste 16 Oeste 0.4 903.9 1.2 94
2021-02-12 09:00:00 7.4 3 Noroeste 15 Oeste 1.6 902.9 -- 94
2021-02-12 08:00:00 7.5 5 Sudoeste 19 Sudoeste 1.4 902.9 -- 92
2021-02-12 07:00:00 7.4 6 Sudoeste 36 Sur 5.2 902.7 -- 90
2021-02-12 06:00:00 8.8 6 Sudoeste 21 Sur 0.4 902.4 -- 92
2021-02-12 05:00:00 8.7 11 Sudoeste 24 Sudoeste 0 902.5 -- 91
2021-02-12 04:00:00 8.8 9 Sudoeste 33 Sudoeste 0 902.8 -- 91
2021-02-12 03:00:00 9.3 12 Sudoeste 33 Sudoeste 0 903.2 -- 91
2021-02-12 02:00:00 9.6 15 Sudoeste 31 Sudoeste 0 903.4 -- 90
2021-02-12 01:00:00 9.4 7 Sudoeste 24 Sudoeste 0 903.8 -- 93
2021-02-12 00:00:00 9.4 6 Sudoeste 18 Sudoeste 0.2 904.4 -- 94
2021-02-11 23:00:00 9.4 9 Sudoeste 21 Sudoeste 0.2 904.6 -- 94
2021-02-11 22:00:00 9.4 5 Sudoeste 21 Sudoeste 0 904.9 -- 92
2021-02-11 21:00:00 9.3 11 Sudoeste 22 Sudoeste 0 905 -- 93
2021-02-11 20:00:00 9.5 10 Sudoeste 18 Sudoeste 0 905.1 -- 91
2021-02-11 19:00:00 9.5 5 Sudoeste 19 Sudoeste 0 905 -- 90
2021-02-11 18:00:00 9.6 9 Sudoeste 25 Oeste 0 905.1 -- 89
2021-02-11 17:00:00 10.3 6 Oeste 26 Sudoeste 0 904.9 -- 84
2021-02-11 16:00:00 11 10 Sudoeste 31 Sudoeste 0 905 -- 80
2021-02-11 15:00:00 11.2 9 Sudoeste 23 Sudoeste 0 905.2 -- 77
2021-02-11 14:00:00 10 -- -- -- -- -- 905.5 -- 83
2021-02-11 13:00:00 8.9 9 Sudoeste 18 Sur 0 905.9 -- 87
2021-02-11 12:00:00 7.6 10 Sur 21 Sur 0 906.1 -- 90
2021-02-11 11:00:00 6.5 6 Sudoeste 18 Sudoeste 0 906.1 -- 91
2021-02-11 10:00:00 5.6 9 Sudoeste 18 Sudoeste 0 905.8 -- 93
2021-02-11 09:00:00 5 5 Sudoeste 10 Oeste 0 905 -- 95
2021-02-11 08:00:00 4.2 8 Sudoeste 17 Sur 0 904.9 -- 95
2021-02-11 07:00:00 4.3 5 Sudoeste 11 Sudoeste 0 904.4 -- 95
2021-02-11 06:00:00 3.4 6 Sur 11 Sur 0 904.4 -- 95
2021-02-11 05:00:00 2.9 2 Nordeste 8 Nordeste 0 904.1 -- 94
2021-02-11 04:00:00 1.9 0 Calma 5 Sur 0 904.2 -- 95
2021-02-11 03:00:00 0.9 3 Norte 6 Nordeste 0 904.2 -- 95
2021-02-11 02:00:00 0.2 0 Calma 7 Norte 0 904.3 -- 95
2021-02-11 01:00:00 -0.8 3 Nordeste 6 Norte 0 904 -- 95
2021-02-11 00:00:00 0 3 Nordeste 6 Este 0 903.5 -- 93
2021-02-10 23:00:00 1.1 2 Norte 5 Nordeste 0 902.8 -- 91
2021-02-10 22:00:00 2.1 3 Nordeste 9 Noroeste 0 902.4 -- 88
2021-02-10 21:00:00 2.4 2 Norte 8 Norte 0 901.7 -- 85
2021-02-10 20:00:00 3.7 4 Norte 8 Nordeste 0 901.2 -- 77
2021-02-10 19:00:00 5.9 3 Noroeste 15 Sudoeste 0 900.5 -- 67
2021-02-10 18:00:00 9.8 9 Sudoeste 20 Sudoeste 0 899.9 -- 46
2021-02-10 17:00:00 11.4 4 Oeste 18 Oeste 0 899.2 -- 47
2021-02-10 16:00:00 10.9 8 Oeste 20 Noroeste 0 898.7 -- 44
2021-02-10 15:00:00 10.4 9 Oeste 27 Sudoeste 0 898.3 -- 48
2021-02-10 14:00:00 9.8 11 Oeste 32 Sudoeste 0 898.2 -- 51
2021-02-10 13:00:00 8.9 10 Oeste 36 Noroeste 0 897.8 -- 54
2021-02-10 12:00:00 8.3 8 Oeste 32 Oeste 0 896.8 -- 58
2021-02-10 11:00:00 6.3 10 Oeste 34 Oeste 0 895.5 -- 72
2021-02-10 10:00:00 4.4 7 Sudoeste 18 Sudoeste 0 894.6 -- 84
2021-02-10 09:00:00 2.7 5 Oeste 20 Sudoeste 0 893.1 -- 93
2021-02-10 08:00:00 2.5 9 Sudoeste 18 Sudoeste 0 891.6 -- 92
2021-02-10 07:00:00 2.5 5 Sudoeste 33 Sudoeste 0 890.5 -- 90
2021-02-10 06:00:00 3.6 16 Sudoeste 41 Sudoeste 0.4 889.1 -- 83
2021-02-10 05:00:00 4.4 17 Sudoeste 51 Sudoeste 3.6 888.1 -- 88
2021-02-10 04:00:00 3.4 5 Oeste 26 Sudoeste 6.2 888.5 -- 93
2021-02-10 03:00:00 4.2 12 Oeste 44 Sur 1.6 889.4 -- 91
2021-02-10 02:00:00 4.8 16 Sudoeste 42 Sudoeste 0.4 889.3 -- 92
2021-02-10 01:00:00 5 16 Sudoeste 36 Sudoeste 0.4 889.4 -- 93
2021-02-10 00:00:00 3.8 5 Sudoeste 14 Sudoeste 0 889.6 -- 93
2021-02-09 23:00:00 3.4 3 Sur 24 Sudoeste 0 889.9 -- 92
2021-02-09 22:00:00 4.3 9 Sudoeste 32 Sudoeste 0.4 889.6 -- 87
2021-02-09 21:00:00 4.7 10 Oeste 28 Oeste 1.6 889.3 -- 95
2021-02-09 20:00:00 3.4 0 Calma 7 Sudoeste 0 888.7 -- 95
2021-02-09 19:00:00 3.4 3 Noroeste 18 Sur 0 888.9 -- 90
2021-02-09 18:00:00 4.8 10 Sudoeste 27 Sur 0 888.9 -- 84
2021-02-09 17:00:00 4.7 14 Sudoeste 30 Sudoeste 0.6 888.4 -- 88
2021-02-09 16:00:00 5.5 10 Sudoeste 54 Sudoeste 2.4 888.6 -- 90
2021-02-09 15:00:00 6.3 20 Sudoeste 60 Sudoeste 3.4 887.2 -- 92
2021-02-09 14:00:00 6.5 31 Sur 58 Sur 0.8 887.3 -- 90
2021-02-09 13:00:00 6.2 33 Sur 60 Sudoeste 0.4 888.6 -- 90
2021-02-09 12:00:00 5.7 32 Sur 61 Sur 1.2 889.9 -- 91
2021-02-09 11:00:00 5.5 27 Sur 53 Sudoeste 0 890 -- 92
2021-02-09 10:00:00 5 22 Sudoeste 50 Sur 0 890.8 -- 92
2021-02-09 09:00:00 3.7 15 Sur 32 Sur 0.6 891.7 -- 96
2021-02-09 08:00:00 3.1 15 Sur 28 Sudoeste 0.4 892.4 -- 95
2021-02-09 07:00:00 2.6 15 Sur 37 Sur 0.6 892.9 -- 94
2021-02-09 06:00:00 2.9 15 Sur 34 Sudoeste 0.4 893.2 -- 93
2021-02-09 05:00:00 3.5 8 Sudoeste 41 Sudoeste 0.2 893.3 -- 93
2021-02-09 04:00:00 4 10 Sudoeste 36 Sur 0.2 893.5 -- 94
2021-02-09 03:00:00 4.4 10 Sudoeste 29 Sudoeste 0 893.7 -- 90
2021-02-09 02:00:00 4.6 12 Sur 24 Sudoeste 0 893.7 1.2 90
2021-02-09 01:00:00 4.6 8 Sudoeste 24 Sudoeste 0 893.5 -- 92
2021-02-09 00:00:00 4.6 4 Sudoeste 21 Sudoeste 0 893.1 -- 94
2021-02-08 23:00:00 4 9 Sudoeste 24 Sudoeste 0 892.5 -- 93
2021-02-08 22:00:00 4.2 11 Sudoeste 26 Sudoeste 0 892 -- 92
2021-02-08 21:00:00 4.2 12 Sudoeste 27 Sudoeste 0 891.5 -- 91
2021-02-08 20:00:00 4.1 12 Sudoeste 30 Sudoeste 0 891 -- 91
2021-02-08 19:00:00 4.7 9 Sudoeste 31 Sudoeste 0 890.2 -- 86
2021-02-08 18:00:00 5.8 16 Sudoeste 39 Sudoeste 0 889.4 -- 76
2021-02-08 17:00:00 7 9 Sudoeste 42 Sudoeste 0 888.8 -- 69
2021-02-08 16:00:00 7.5 13 Sudoeste 38 Sudoeste 0.2 888.3 -- 70
2021-02-08 15:00:00 7.4 13 Sudoeste 33 Sudoeste 0.2 888.1 -- 72
2021-02-08 14:00:00 7.3 17 Sudoeste 41 Sudoeste 0 888.4 -- 81
2021-02-08 13:00:00 7.1 14 Sudoeste 39 Sur 0 888.8 -- 74
2021-02-08 12:00:00 6 10 Sudoeste 31 Sudoeste 0 889.2 -- 83
2021-02-08 11:00:00 5.3 12 Sudoeste 30 Sudoeste 0 888.8 -- 86
2021-02-08 10:00:00 4.4 12 Sudoeste 28 Sudoeste 0 888.4 -- 93
2021-02-08 09:00:00 3.8 9 Sudoeste 22 Sudoeste 0 887.9 -- 95
2021-02-08 08:00:00 3.6 10 Sur 24 Sudoeste 0.6 887 -- 94
2021-02-08 07:00:00 3.5 5 Sudoeste 27 Sudoeste 1.4 888 -- 95
2021-02-08 06:00:00 3.5 5 Sudoeste 28 Sudoeste 2 888.6 -- 95
2021-02-08 05:00:00 4 17 Sudoeste 35 Sudoeste 1 888.8 -- 94
2021-02-08 04:00:00 3.9 12 Sudoeste 34 Sudoeste 1.2 889.4 -- 96
2021-02-08 03:00:00 3.7 15 Sudoeste 35 Sudoeste 0.6 890.1 -- 98
2021-02-08 02:00:00 3.2 13 Sudoeste 39 Sudoeste 0 890.9 -- 98
2021-02-08 01:00:00 3.3 14 Sudoeste 39 Sur 0 891.7 -- 98
2021-02-08 00:00:00 4 17 Sur 33 Sudoeste 0 891.8 -- 96
2021-02-07 23:00:00 4.4 8 Sudoeste 29 Sudoeste 0 892.4 -- 93
2021-02-07 22:00:00 4.7 8 Sudoeste 31 Sur 0 892.7 -- 89
2021-02-07 21:00:00 5.2 10 Sudoeste 27 Oeste 0.2 892.6 -- 90
2021-02-07 20:00:00 5.8 10 Sudoeste 29 Oeste 0 892.8 -- 86
2021-02-07 19:00:00 6.3 9 Sudoeste 28 Sudoeste 0 892.3 -- 65
2021-02-07 18:00:00 6.5 10 Sudoeste 28 Sur 0 892 -- 67
2021-02-07 17:00:00 6.8 13 Sudoeste 30 Sur 0 891.9 -- 65
2021-02-07 16:00:00 7.8 10 Sudoeste 26 Sudoeste 0 892 -- 57
2021-02-07 15:00:00 8.5 8 Sudoeste 23 Sur 0 892.1 -- 51
2021-02-07 14:00:00 7.7 8 Oeste 30 Noroeste 0.2 892.7 -- 51
2021-02-07 13:00:00 7 8 Oeste 24 Oeste 0 893.5 -- 55
2021-02-07 12:00:00 5.9 8 Oeste 36 Noroeste 0 893.9 -- 62
2021-02-07 11:00:00 3.7 7 Noroeste 19 Sudoeste 0 894 -- 67
2021-02-07 10:00:00 1.8 7 Sudoeste 15 Sur 0 893.7 -- 78
2021-02-07 09:00:00 -0.7 2 Sur 6 Sudoeste 0 893.8 -- 94
2021-02-07 08:00:00 -1.1 3 Oeste 6 Este 0 893.2 -- 93
2021-02-07 07:00:00 -0.3 2 Sudoeste 5 Noroeste 0 893 -- 92
2021-02-07 06:00:00 1.3 0 Calma 10 Norte 0 892.9 -- 87
2021-02-07 05:00:00 2.3 4 Noroeste 13 Noroeste 0 892.7 -- 88
2021-02-07 04:00:00 3.1 4 Oeste 10 Sudoeste 0 892.8 -- 90
2021-02-07 03:00:00 3.1 3 Nordeste 10 Norte 0 892.6 -- 91
2021-02-07 02:00:00 3.1 4 Nordeste 10 Nordeste 0 892.7 -- 91
2021-02-07 01:00:00 3.2 4 Nordeste 14 Norte 0 892.8 -- 90
2021-02-07 00:00:00 3.5 6 Nordeste 24 Nordeste 0 892.5 -- 88
2021-02-06 23:00:00 4.1 13 Nordeste 29 Nordeste 0 892.4 -- 84
2021-02-06 22:00:00 4.3 5 Nordeste 12 Nordeste 0 891.9 -- 92
2021-02-06 21:00:00 4.6 5 Nordeste 12 Nordeste 0 891.5 -- 93
2021-02-06 20:00:00 4.8 6 Nordeste 12 Nordeste 0.2 891.2 -- 92
2021-02-06 19:00:00 4.9 5 Nordeste 18 Nordeste 3.4 890.6 -- 93
2021-02-06 18:00:00 -- 6 Norte 17 Norte 2.6 890 -- 89
2021-02-06 17:00:00 -- 8 Norte 20 Sur 1.4 889.2 -- 89
2021-02-06 16:00:00 7.5 8 Sur 21 Sur 0.6 888.7 -- 81
2021-02-06 15:00:00 10.3 14 Sur 23 Sudoeste 0 888.3 -- 68
2021-02-06 14:00:00 8.3 12 Sudoeste 21 Sudoeste 0.4 888.7 -- 79
2021-02-06 13:00:00 7.6 10 Sudoeste 23 Sudoeste 0.2 889.2 -- 84
2021-02-06 12:00:00 8 9 Sudoeste 23 Sur 0 889.3 -- 81
2021-02-06 11:00:00 7.9 14 Sudoeste 26 Sudoeste 0 889.1 -- 83
2021-02-06 10:00:00 6.7 13 Sudoeste 24 Sur 0 889.1 -- 90
2021-02-06 09:00:00 6.1 6 Sudoeste 19 Sur 0 889 -- 93
2021-02-06 08:00:00 6 9 Sur 24 Sur 0 888.6 -- 92
2021-02-06 07:00:00 6.1 8 Sur 22 Sur 0.6 888.4 -- 93
2021-02-06 06:00:00 6.5 13 Sur 29 Sur 0 888.5 -- 92
2021-02-06 05:00:00 6.6 12 Sur 21 Sur 0 888.5 -- 91
2021-02-06 04:00:00 6.2 2 Este 9 Sur 0 888.6 -- 92
2021-02-06 03:00:00 6.1 5 Nordeste 15 Nordeste 0 889.1 -- 90
2021-02-06 02:00:00 6 7 Nordeste 12 Norte 0 889.3 -- 91
2021-02-06 01:00:00 6.5 4 Nordeste 33 Sur 2.2 890.6 -- 91
2021-02-06 00:00:00 7.3 18 Sur 42 Sur 3 891.9 -- 88
2021-02-05 23:00:00 8 8 Sur 21 Sur 0 890.7 -- 76
2021-02-05 22:00:00 6.7 0 Calma 10 Nordeste 0 890.9 -- 85
2021-02-05 21:00:00 7.3 6 Nordeste 12 Nordeste 0 889.6 -- 83
2021-02-05 20:00:00 8 5 Nordeste 10 Nordeste 0 889.8 -- 75
2021-02-05 19:00:00 9.2 4 Este 10 Norte 0 889.8 -- 71
2021-02-05 18:00:00 13.4 6 Sur 14 Sudoeste 0 889.6 -- 55
2021-02-05 17:00:00 15.7 11 Sur 22 Sur 0 889.9 -- 46
2021-02-05 16:00:00 16.2 10 Sudeste 31 Sudoeste 0 890.2 -- 41
2021-02-05 15:00:00 16 11 Sur 26 Sudoeste 0 890.7 -- 44
2021-02-05 14:00:00 15.5 13 Sudoeste 31 Sur 0 891.5 -- 45
2021-02-05 13:00:00 14.7 15 Sur 30 Sudoeste 0 892.5 -- 46
2021-02-05 12:00:00 14.2 12 Sur 25 Sudoeste 0 893.3 -- 47
2021-02-05 11:00:00 11.1 5 Norte 13 Nordeste 0 893.3 -- 65
2021-02-05 10:00:00 7.3 6 Nordeste 13 Nordeste 0 893.7 -- 83
2021-02-05 09:00:00 4.3 6 Nordeste 12 Nordeste 0 894 -- 91
2021-02-05 08:00:00 3.3 5 Nordeste 11 Nordeste 0 894.2 -- 92
2021-02-05 07:00:00 3.4 6 Nordeste 10 Nordeste 0 894.3 -- 94
2021-02-05 06:00:00 2.8 4 Norte 11 Nordeste 0 895.2 -- 96
2021-02-05 05:00:00 2.9 5 Nordeste 12 Nordeste 0 895.6 -- 96
2021-02-05 04:00:00 3 7 Nordeste 10 Nordeste 0 896 -- 97
2021-02-05 03:00:00 2.9 5 Nordeste 13 Norte 0 896.5 -- 97
2021-02-05 02:00:00 2.3 3 Nordeste 9 Nordeste 0 896.6 -- 96
2021-02-05 01:00:00 3 2 Nordeste 6 Este 0 897 -- 95
2021-02-05 00:00:00 3.9 2 Nordeste 8 Norte 0 897.5 -- 95
2021-02-04 23:00:00 3.7 4 Nordeste 9 Norte 0 897.8 -- 95
2021-02-04 22:00:00 4.1 3 Nordeste 10 Norte 0 897.8 -- 93
2021-02-04 21:00:00 5 4 Norte 8 Norte 0 897.2 -- 91
2021-02-04 20:00:00 7.1 4 Sur 17 Sudoeste 0 897.1 -- 85
2021-02-04 19:00:00 8.9 6 Sudoeste 26 Sudoeste 0 896.6 -- 77
2021-02-04 18:00:00 10.4 10 Sudoeste 31 Sur 0 895.9 -- 74
2021-02-04 17:00:00 12.7 22 Sur 47 Sur 0 895.3 -- 55
2021-02-04 16:00:00 13.9 23 Sur 42 Sudoeste 0 895.2 -- 52
2021-02-04 15:00:00 13.8 20 Sur 35 Sudoeste 0 895.4 -- 55
2021-02-04 14:00:00 13.5 18 Sur 33 Sur 0 895.8 -- 54
2021-02-04 13:00:00 13.5 20 Sur 33 Sur 0 896.2 -- 56
2021-02-04 12:00:00 12 11 Sudeste -- -- -- 897.4 -- 72
2021-02-04 11:00:00 9.3 4 Sur 15 Sur 0 898.2 -- 84
2021-02-04 10:00:00 8.6 5 Sur 11 Sudoeste 0 898.5 -- 91
2021-02-04 09:00:00 7.9 3 Sudoeste 10 Sudoeste 0 898.6 -- 94
2021-02-04 08:00:00 7.8 0 Calma 15 Sur 0 898.4 -- 94
2021-02-04 07:00:00 7.9 6 Sur 19 Sudoeste 0 898.6 -- 94
2021-02-04 06:00:00 7.9 9 Sur 18 Sudoeste 0.2 898.6 -- 94
2021-02-04 05:00:00 8 5 Sudoeste 15 Sur 0 898.7 -- 94
2021-02-04 04:00:00 8.3 10 Sur 21 Sur 0 899 -- 92
2021-02-04 03:00:00 8.5 7 Sur 20 Sur 0 899.3 -- 92
2021-02-04 02:00:00 8.6 9 Sudoeste 21 Sudoeste 0 899.3 -- 90
2021-02-04 01:00:00 8.7 6 Sudoeste 19 Sudoeste 0 899.6 -- 88
2021-02-04 00:00:00 8.8 8 Sudoeste 24 Sur 0 899.7 -- 88
2021-02-03 23:00:00 9 11 Sur 26 Sur 0 899.7 -- 89
2021-02-03 22:00:00 9.1 13 Sur 28 Sur 0 899.6 -- 89
2021-02-03 21:00:00 9.1 14 Sur 24 Sudoeste 0 899.5 -- 90
2021-02-03 20:00:00 8.9 13 Sur 22 Sur 0 899.8 -- 89
2021-02-03 19:00:00 9.2 12 Sudoeste 24 Sudoeste 0 899.7 -- 85
2021-02-03 18:00:00 9.5 14 Sur 32 Sudoeste 0 899.5 -- 85
2021-02-03 17:00:00 9.7 14 Sudoeste 37 Sur 0 899.5 -- 82
2021-02-03 16:00:00 10 18 Sur 33 Sudoeste 0 899.9 -- 80
2021-02-03 15:00:00 9.9 12 Sudoeste 29 Sudoeste 0 900.1 -- 81
2021-02-03 14:00:00 9 12 Sudoeste 29 Sur 0 900.5 -- 83
2021-02-03 13:00:00 8.4 7 Sudoeste 31 Sudoeste 0 901 -- 86
2021-02-03 12:00:00 8.1 10 Sudoeste 26 Sur 0 901.7 -- 85
2021-02-03 11:00:00 7.6 14 Sudoeste 30 Sur 0 901.7 -- 86
2021-02-03 10:00:00 7.3 10 Sudoeste 25 Sudoeste 0 901.5 -- 86
2021-02-03 09:00:00 7 8 Sudoeste 27 Sudoeste 0 901.2 -- 85
2021-02-03 08:00:00 6.9 11 Sudoeste 30 Sudoeste 0 900.8 -- 86
2021-02-03 07:00:00 6.8 10 Sudoeste 33 Sudoeste 0 900.5 -- 85
2021-02-03 06:00:00 6.7 7 Sudoeste 26 Sudoeste 0 900.6 -- 85
2021-02-03 05:00:00 6.5 8 Sudoeste 26 Sudoeste 0 900.7 -- 83
2021-02-03 04:00:00 6.6 7 Sudoeste 31 Sudoeste 0 900.9 -- 81
2021-02-03 03:00:00 7 10 Sudoeste 29 Sur 0 901.2 -- 80
2021-02-03 02:00:00 7.5 8 Sudoeste 37 Sudoeste 0 901.4 -- 79
2021-02-03 01:00:00 8.1 12 Sudoeste 38 Sudoeste 0 901.5 -- 80
2021-02-03 00:00:00 8.5 12 Sudoeste 30 Sudoeste 0 901.4 -- 83
2021-02-02 23:00:00 8.7 10 Sudoeste 30 Sur 0 901.6 -- 82
2021-02-02 22:00:00 8.8 14 Sudoeste 30 Sudoeste 0 901.8 -- 76
2021-02-02 21:00:00 8.9 14 Sudoeste 27 Sudoeste 0 901.8 -- 79
2021-02-02 20:00:00 8.9 13 Sur 32 Sur 0 902.1 -- 82
2021-02-02 19:00:00 8.8 13 Sudoeste 30 Sudoeste 0 902 -- 87
2021-02-02 18:00:00 8.6 7 Sudoeste 23 Sudoeste 0 902.1 -- 90
2021-02-02 17:00:00 8.9 9 Sudoeste 26 Sudoeste 0 902.4 -- 89
2021-02-02 16:00:00 8.9 10 Sudoeste 24 Sudoeste 0 902.2 -- 89
2021-02-02 15:00:00 8.9 10 Sudoeste 30 Sur 0 903 -- 86
2021-02-02 14:00:00 9.1 11 Sudoeste 29 Sur 0 903.5 -- 87
2021-02-02 13:00:00 9.1 9 Sudoeste 24 Sudoeste 0 904.1 -- 88
2021-02-02 12:00:00 7.8 8 Sudoeste 26 Sudoeste 0 904.9 -- 92
2021-02-02 11:00:00 7.4 9 Sudoeste 21 Sudoeste 0 904.8 -- 94
2021-02-02 10:00:00 6.8 10 Sudoeste 22 Sur 0 904.9 -- 96
2021-02-02 09:00:00 6.3 9 Sudoeste 21 Sur 0 904.3 -- 97
2021-02-02 08:00:00 6.3 6 Sudoeste 17 Sudoeste 0 904 -- 97
2021-02-02 07:00:00 6.4 6 Sudoeste 19 Sur 0 903.8 -- 97
2021-02-02 06:00:00 6.4 7 Sudoeste 15 Sur 0 903.7 -- 97
2021-02-02 05:00:00 6.4 6 Sudoeste 14 Sudoeste 0 904 -- 97
2021-02-02 04:00:00 6.2 6 Sudoeste 16 Sudoeste 0 903.9 -- 97
2021-02-02 03:00:00 6.1 9 Sudoeste 17 Sudoeste 0 903.9 -- 96
2021-02-02 02:00:00 6.1 6 Sur 22 Sudoeste 0 903.9 -- 96
2021-02-02 01:00:00 3.1 5 Sur 8 Sudoeste 0 904.2 -- 96
2021-02-02 00:00:00 3.1 6 Sudoeste 10 Sur 0 903.9 -- 95
2021-02-01 23:00:00 3 3 Sudoeste 6 Sudoeste 0 903.9 -- 92
2021-02-01 22:00:00 3.4 2 Oeste 5 Sudoeste 0 903.5 -- 88
2021-02-01 21:00:00 5.4 2 Sur 7 Sur 0 903.4 -- 80
2021-02-01 20:00:00 8.2 2 Sur 19 Sudoeste 0 903 -- 70
2021-02-01 19:00:00 9.9 7 Oeste 26 Oeste 0 902.4 -- 64
2021-02-01 18:00:00 11.1 5 Sudoeste 32 Sudoeste 0 902 -- 61
2021-02-01 17:00:00 13.3 12 Sudoeste 35 Sudoeste 0 901.3 -- 51
2021-02-01 16:00:00 14.5 13 Sudoeste 30 Sudoeste 0 900.7 -- 50
2021-02-01 15:00:00 14 10 Oeste 39 Sudoeste 0 900.9 -- 52
2021-02-01 14:00:00 14.9 12 Oeste 35 Noroeste 0 900.8 -- 49
2021-02-01 13:00:00 15.3 11 Oeste 36 Sudoeste 0 900.7 -- 47
2021-02-01 12:00:00 14.4 10 Oeste 40 Oeste 0 900.5 -- 50
2021-02-01 11:00:00 12.6 11 Oeste 32 Oeste 0 900.3 -- 54
2021-02-01 10:00:00 10.6 10 Oeste 31 Sudoeste 0 899.6 -- 58
2021-02-01 09:00:00 8.3 9 Oeste 29 Oeste 0 899 -- 62
2021-02-01 08:00:00 6.7 7 Oeste 28 Sudoeste 0 898.3 -- 67
2021-02-01 07:00:00 7.8 12 Sudoeste 35 Sudoeste 0 898 -- 64
2021-02-01 06:00:00 7.6 8 Oeste 30 Noroeste 0 897.9 -- 67
2021-02-01 05:00:00 7.6 6 Oeste 31 Noroeste 0 897.8 -- 66
2021-02-01 04:00:00 7.4 5 Sudoeste 23 Sudoeste 0 897.5 -- 67
2021-02-01 03:00:00 8.7 7 Sudoeste 25 Sudoeste 0 897.7 -- 62
2021-02-01 02:00:00 8.6 8 Sudoeste 28 Sudoeste 0 897.5 -- 63
2021-02-01 01:00:00 9.8 14 Sudoeste 37 Oeste 0 897.4 -- 59
2021-02-01 00:00:00 10 14 Sudoeste 36 Oeste 0 897.5 -- 60
2021-01-31 23:00:00 9.8 10 Sudoeste 24 Sudoeste 0 897.6 -- 61
2021-01-31 22:00:00 10.1 14 Sudoeste 32 Sudoeste 0 897.3 -- 67
2021-01-31 21:00:00 8.6 9 Sudoeste 23 Sudoeste 0 896.7 -- 83
2021-01-31 20:00:00 9.5 13 Sudoeste 26 Sudoeste 0 896.5 -- 79
2021-01-31 19:00:00 9.7 12 Sudoeste 23 Sudoeste 0 896.9 -- 75
2021-01-31 18:00:00 10.6 6 Sudoeste 24 Oeste 0 897 -- 79
2021-01-31 17:00:00 10.6 11 Sudoeste 26 Sudoeste 0 897.3 -- 80
2021-01-31 16:00:00 10.8 9 Sudoeste 33 Sudoeste 0 897.3 -- 79
2021-01-31 15:00:00 10.8 15 Sudoeste 31 Sur 0 897.6 -- 77
2021-01-31 14:00:00 9.9 9 Sudoeste 27 Sudoeste 0 897.9 -- 77
2021-01-31 13:00:00 8.3 15 Sudoeste 32 Sudoeste 0 899 -- 82
2021-01-31 12:00:00 8.8 13 Sudoeste 28 Sudoeste 0 899.2 -- 73
2021-01-31 11:00:00 8.2 12 Sudoeste 31 Sudoeste 0 898.9 -- 71
2021-01-31 10:00:00 6 9 Sur 22 Sudoeste 0 899.2 -- 75
2021-01-31 09:00:00 5.1 6 Sudoeste 11 Sudoeste 0 898.6 -- 75
2021-01-31 08:00:00 4.5 3 Oeste 23 Sudoeste 0 898.2 -- 77
2021-01-31 07:00:00 5.5 5 Oeste 26 Oeste 0 898 -- 70
2021-01-31 06:00:00 5.2 8 Oeste 27 Sudoeste 0 897.5 -- 71
2021-01-31 05:00:00 5.4 8 Oeste 31 Sudoeste 0 897.4 -- 71
2021-01-31 04:00:00 5.3 8 Sudoeste 34 Sudoeste 0 897.3 -- 73
2021-01-31 03:00:00 5.3 12 Sudoeste 36 Sudoeste 0 897.6 -- 72
2021-01-31 02:00:00 5 14 Sudoeste 39 Sudoeste 0 896.9 -- 74
2021-01-31 01:00:00 5.5 10 Sudoeste 26 Sudoeste 0 897.3 -- 72
2021-01-31 00:00:00 5.4 9 Sudoeste 25 Sudoeste 0 897.3 -- 71
2021-01-30 23:00:00 5.5 10 Sudoeste 23 Sudoeste 0 897 -- 72
2021-01-30 22:00:00 5.5 9 Sudoeste 34 Sudoeste 0 897 -- 72
2021-01-30 21:00:00 5.5 13 Sudoeste 33 Sudoeste 0.4 896.6 -- 75
2021-01-30 20:00:00 5.5 12 Sudoeste 33 Sudoeste 0.2 896.6 -- 81
2021-01-30 19:00:00 6.1 12 Sudoeste 34 Oeste 0 896.3 -- 74
2021-01-30 18:00:00 6.3 14 Sudoeste 38 Sudoeste 0 896 -- 70
2021-01-30 17:00:00 7.3 12 Oeste 46 Sudoeste 0 895.9 -- 67
2021-01-30 16:00:00 9.2 18 Sudoeste 42 Sudoeste 0 896 -- 56
2021-01-30 15:00:00 8.9 21 Sudoeste 47 Sudoeste 0 896.3 -- 51
2021-01-30 14:00:00 9.1 17 Sudoeste 46 Sudoeste 0 896.8 -- 55
2021-01-30 13:00:00 7.9 17 Sudoeste 41 Sur 0 897.3 -- 70
2021-01-30 12:00:00 8.7 14 Sudoeste 42 Sudoeste 0.2 897.7 -- 65
2021-01-30 11:00:00 8.9 15 Sudoeste 38 Sudoeste 0 897.6 -- 78
2021-01-30 10:00:00 6.3 12 Sudoeste 32 Sur 0 898 -- 92
2021-01-30 09:00:00 6.1 8 Sudoeste 27 Sudoeste 0.2 898.1 -- 92
2021-01-30 08:00:00 5.8 3 Oeste 25 Sur 0.2 898.3 -- 89
2021-01-30 07:00:00 7.3 13 Sudoeste 37 Sudoeste 1.6 898.9 -- 89
2021-01-30 06:00:00 7.8 8 Sudoeste 28 Sudoeste 1.4 899.5 -- 94
2021-01-30 05:00:00 7.8 10 Sudoeste 40 Sur 0.2 898.8 -- 94
2021-01-30 04:00:00 8 14 Sudoeste 40 Sudoeste 0.2 900.1 -- 95
2021-01-30 03:00:00 7.7 10 Sudoeste 35 Sudoeste 0 900.5 -- 95
2021-01-30 02:00:00 8 13 Sudoeste 29 Sur 0 901.4 -- 91
2021-01-30 01:00:00 8.2 5 Sur 21 Sudoeste 0 902.8 -- 92
2021-01-30 00:00:00 8.1 14 Sur 26 Sudoeste 0 904 -- 95
2021-01-29 23:00:00 7.8 12 Sudoeste 31 Sudoeste 0 904.6 -- 96
2021-01-29 22:00:00 7.3 13 Sudoeste 26 Sudoeste 0 904.8 -- 95
2021-01-29 21:00:00 7.4 13 Sudoeste 26 Sudoeste 0 905.1 -- 93
2021-01-29 20:00:00 8.3 7 Sudoeste 19 Sudoeste 0 905.5 -- 93
2021-01-29 19:00:00 8.8 5 Sudoeste 15 Oeste 0 905.8 -- 89
2021-01-29 18:00:00 9.1 7 Sudoeste 14 Oeste 0 905.6 -- 87
2021-01-29 17:00:00 9.5 9 Sudoeste 19 Sudoeste 0 905.9 -- 85
2021-01-29 16:00:00 10.3 9 Sudoeste 25 Sudoeste 0 906 -- 81
2021-01-29 15:00:00 11 10 Sudoeste 21 Sur 0 906.5 -- 81
2021-01-29 14:00:00 9.6 7 Sudoeste 15 Sudoeste 0 907.1 -- 83
2021-01-29 13:00:00 8.9 5 Oeste 14 Oeste 0 907.6 -- 86
2021-01-29 12:00:00 8.5 5 Sudoeste 16 Sur 0 908.3 -- 89
2021-01-29 11:00:00 7.5 6 Sudoeste 13 Sudoeste 0 908.2 -- 94
2021-01-29 10:00:00 7.2 6 Sudoeste 12 Sudoeste 0 908.1 -- 95
2021-01-29 09:00:00 7 5 Sudoeste 13 Sudoeste 0 908 -- 95
2021-01-29 08:00:00 7.3 5 Sudoeste 22 Sudoeste 0 907.8 -- 94
2021-01-29 07:00:00 7.5 12 Sudoeste 24 Sudoeste 0 907.2 -- 93
2021-01-29 06:00:00 7.8 7 Sudoeste 24 Sudoeste 0 907.5 -- 93
2021-01-29 05:00:00 7.9 8 Sudoeste 28 Sudoeste 0 907.8 -- 92
2021-01-29 04:00:00 8 9 Sudoeste 23 Sudoeste 0 907.8 -- 93
2021-01-29 03:00:00 8.3 9 Sudoeste 23 Sudoeste 0 908.2 -- 92
2021-01-29 02:00:00 8.5 7 Sudoeste 26 Sudoeste 0 908.4 -- 92
2021-01-29 01:00:00 8.5 9 Sudoeste 21 Sudoeste 0 909 -- 93
2021-01-29 00:00:00 8.6 9 Sudoeste 23 Sudoeste 0 909.1 -- 93
2021-01-28 23:00:00 8.7 11 Sudoeste 20 Sudoeste 0 909.1 -- 92
2021-01-28 22:00:00 8.9 7 Sudoeste 16 Sudoeste 0 909.1 -- 91
2021-01-28 21:00:00 8.9 5 Sudoeste 18 Sur 0 909.2 -- 93
2021-01-28 20:00:00 9 8 Sudoeste 18 Oeste 0 909.5 -- 93
2021-01-28 19:00:00 9.4 8 Sudoeste 20 Oeste 0 909.3 -- 91
2021-01-28 18:00:00 10.1 9 Sudoeste 21 Sudoeste 0 909.1 -- 90
2021-01-28 17:00:00 10.6 6 Oeste 17 Sudoeste 0 909.2 -- 89
2021-01-28 16:00:00 10.6 6 Sudoeste 21 Sudoeste 0 909.6 -- 90
2021-01-28 15:00:00 10.6 9 Sudoeste 23 Sudoeste 0 909.7 -- 90
2021-01-28 14:00:00 9.6 10 Sudoeste 19 Sudoeste 0 910.2 -- 95
2021-01-28 13:00:00 8.4 12 Sudoeste 20 Sur 0 911.2 -- 97
2021-01-28 12:00:00 7.8 9 Sudoeste 18 Sudoeste 0 911.8 -- 98
2021-01-28 11:00:00 7.3 13 Sudoeste 19 Sudoeste 0.2 911.6 -- 98
2021-01-28 10:00:00 6.7 7 Sudoeste 16 Sudoeste 0 911.2 -- 98
2021-01-28 09:00:00 6.5 5 Sudoeste 13 Sudoeste 0 910.9 -- 98
2021-01-28 08:00:00 6.6 9 Sur 15 Sur 0 910.5 -- 98
2021-01-28 07:00:00 6.7 5 Sur 14 Sur 0 910.7 -- 98
2021-01-28 06:00:00 5.3 4 Sudoeste 8 Sur 0 910.7 -- 98
2021-01-28 05:00:00 4.7 0 Calma 3 Sur 0 910.7 -- 98
2021-01-28 04:00:00 4.1 0 Calma 6 Nordeste 0 911.1 -- 98
2021-01-28 03:00:00 3.2 2 Nordeste 7 Norte 0 911.3 -- 98
2021-01-28 02:00:00 2.3 0 Calma 8 Norte 0 911.5 -- 97
2021-01-28 01:00:00 2.7 0 Calma 5 Nordeste 0 911.7 -- 96
2021-01-28 00:00:00 3.6 4 Norte 6 Norte 0 911.9 -- 96
2021-01-27 23:00:00 4.4 4 Nordeste 10 Sudoeste 0 911.8 -- 95
2021-01-27 22:00:00 5.4 4 Sudoeste 7 Sudoeste 0 911.7 -- 93
2021-01-27 21:00:00 7.4 2 Nordeste 8 Este 0 911.4 -- 88
2021-01-27 20:00:00 10.3 8 Norte 14 Noroeste 0 911.5 -- 81
2021-01-27 19:00:00 10.9 8 Noroeste 18 Noroeste 0 911.5 -- 79
2021-01-27 18:00:00 12.2 3 Oeste 19 Noroeste 0 911.3 -- 76
2021-01-27 17:00:00 14.1 7 Oeste 28 Noroeste 0 911.1 -- 68
2021-01-27 16:00:00 15.2 14 Noroeste 28 Noroeste 0 911 -- 66
2021-01-27 15:00:00 14.7 9 Oeste 33 Noroeste 0 910.5 -- 69
2021-01-27 14:00:00 14.6 11 Noroeste 32 Noroeste 0 911.2 -- 74
2021-01-27 13:00:00 12.6 9 Noroeste 21 Noroeste 0 911.6 -- 81
2021-01-27 12:00:00 12 10 Oeste 25 Noroeste 0 912.1 -- 86
2021-01-27 11:00:00 10.5 5 Oeste 15 Oeste 0 911.7 -- 97
2021-01-27 10:00:00 9.1 6 Sudoeste 10 Sudoeste 0 911 -- 97
2021-01-27 09:00:00 8.7 5 Sudoeste 10 Sur 0 910.6 -- 97
2021-01-27 08:00:00 8.7 4 Sudoeste 12 Sudoeste 0 910.1 -- 97
2021-01-27 07:00:00 8.9 2 Sudoeste 10 Sudoeste 0 909.7 -- 97
2021-01-27 06:00:00 9.2 4 Sudoeste 11 Sudoeste 0 909.5 -- 97
2021-01-27 05:00:00 9.3 3 Sudoeste 13 Sudoeste 0.2 909.5 -- 97
2021-01-27 04:00:00 9.3 4 Sudoeste 11 Sudoeste 0 909.5 -- 97
2021-01-27 03:00:00 9.1 5 Sudoeste 13 Sudoeste 0.2 909.5 -- 97
2021-01-27 02:00:00 9 4 Oeste 10 Oeste 0 909.7 -- 97
2021-01-27 01:00:00 8.9 4 Sudoeste 12 Sudoeste 0 910 -- 96
2021-01-27 00:00:00 9 7 Sudoeste 14 Sudoeste 0 910.2 -- 96
2021-01-26 23:00:00 9.3 6 Sudoeste 11 Sudoeste 0 909.7 -- 96
2021-01-26 22:00:00 9.3 4 Sudoeste 8 Sudoeste 0.2 909.7 -- 96
2021-01-26 21:00:00 9.5 4 Sur 9 Sudoeste 0 910 -- 95
2021-01-26 20:00:00 9.1 3 Oeste 10 Sudoeste 0.6 909.7 -- 94
2021-01-26 19:00:00 9.3 4 Sudoeste 16 Sudoeste 0.4 909.3 -- 93
2021-01-26 18:00:00 10.1 5 Sudoeste 19 Sudoeste 0 908.7 -- 89
2021-01-26 17:00:00 10.7 10 Sudoeste 19 Sudoeste 0 908.3 -- 86
2021-01-26 16:00:00 10.7 7 Sudoeste 19 Sudoeste 0 908.3 -- 87
2021-01-26 15:00:00 10.1 12 Sudoeste 23 Sudoeste 0 908.2 -- 88
2021-01-26 14:00:00 10 14 Sudoeste 24 Sudoeste 0 908.5 -- 87
2021-01-26 13:00:00 8.1 6 Sudoeste 10 Sudoeste 0 908.6 -- 94
2021-01-26 12:00:00 4.9 0 Calma 6 Norte 0 909.1 -- 96
2021-01-26 11:00:00 2.8 2 Nordeste 5 Este 0 908.9 -- 98
2021-01-26 10:00:00 0.8 4 Nordeste 8 Nordeste 0 908.5 -- 99
2021-01-26 09:00:00 -0.3 2 Nordeste 5 Norte 0 908 -- 99
2021-01-26 08:00:00 -0.7 2 Nordeste 7 Sudoeste 0 907.3 -- 99
2021-01-26 07:00:00 0 5 Nordeste 8 Nordeste 0 907 -- 99
2021-01-26 06:00:00 0.1 6 Norte 9 Norte 0 906.6 -- 99
2021-01-26 05:00:00 -0.7 2 Nordeste 4 Este 0 906.1 -- 99
2021-01-26 04:00:00 0 3 Nordeste 8 Nordeste 0 905.6 -- 99
2021-01-26 03:00:00 0.6 0 Calma 8 Este 0 905.5 -- 99
2021-01-26 02:00:00 0.7 3 Nordeste 5 Este 0 904.8 -- 98
2021-01-26 01:00:00 0.6 0 Calma 13 Sudoeste 0 904.6 -- 98
2021-01-26 00:00:00 1 3 Oeste 8 Norte 0 904.3 -- 97
2021-01-25 23:00:00 1.9 4 Nordeste 9 Norte 0 903.6 -- 97
2021-01-25 22:00:00 2.4 6 Norte 9 Norte 0 902.8 -- 96
2021-01-25 21:00:00 3.4 5 Nordeste 8 Norte 0 901.8 -- 94
2021-01-25 20:00:00 4.9 3 Sudoeste 6 Oeste 0 901 -- 92
2021-01-25 19:00:00 7.1 0 Calma 12 Sudoeste 5.4 900 -- 91
2021-01-25 18:00:00 8 6 Sudoeste 15 Sudoeste 0 898.9 -- 91
2021-01-25 17:00:00 8.8 4 Sudoeste 30 Oeste 0 898.1 -- 89
2021-01-25 16:00:00 9.5 8 Oeste 28 Sudoeste 0 896.8 -- 93
2021-01-25 15:00:00 9.4 12 Sudoeste 31 Sudoeste 0 896.1 -- 93
2021-01-25 14:00:00 9 11 Sudoeste 36 Sudoeste 0 896.2 -- 94
2021-01-25 13:00:00 8.6 10 Sudoeste 38 Sudoeste 0 896.6 -- 94
2021-01-25 12:00:00 8.2 13 Sudoeste 35 Sudoeste 0 896.7 -- 95
2021-01-25 11:00:00 7.8 16 Sudoeste 37 Sudoeste 0 896.9 -- 95
2021-01-25 10:00:00 7.2 10 Sudoeste 35 Sudoeste 0 896.6 -- 96
2021-01-25 09:00:00 6.8 12 Sudoeste 43 Sur 0 896.3 -- 97
2021-01-25 08:00:00 6.6 10 Sudoeste 31 Oeste 0 896.3 -- 97
2021-01-25 07:00:00 6.3 10 Sudoeste 32 Sudoeste 0 896.5 -- 97
2021-01-25 06:00:00 6 11 Sudoeste 36 Sudoeste 0 896.7 -- 96
2021-01-25 05:00:00 5.7 9 Sudoeste 31 Sudoeste 0 897 -- 95
2021-01-25 04:00:00 5.2 9 Sudoeste 22 Sudoeste 0 897.6 -- 90
2021-01-25 03:00:00 5.2 10 Sudoeste 26 Sur 0 898.6 -- 90
2021-01-25 02:00:00 4.8 10 Sudoeste 21 Sudoeste 0 899.1 -- 89
2021-01-25 01:00:00 4.6 6 Sudoeste 16 Sudoeste 0 899.8 -- 87
2021-01-25 00:00:00 5.1 8 Sudoeste 23 Sudoeste 0 899.9 -- 80